createdAt,value
2019-04-28T00:05:51.039Z,100.00
2019-04-28T00:15:41.776Z,79.03
2019-04-28T00:20:04.335Z,100.00
2019-04-28T00:25:36.553Z,79.03
2019-04-28T00:29:15.900Z,100.00
2019-04-28T00:36:42.557Z,100.00
2019-04-28T00:39:43.954Z,79.03
2019-04-28T00:42:15.111Z,100.00
2019-04-28T00:47:13.076Z,100.00
2019-04-28T00:50:31.889Z,100.00
2019-04-28T00:53:32.007Z,100.00
2019-04-28T00:56:36.485Z,100.00
2019-04-28T00:59:09.225Z,79.03
2019-04-28T01:01:48.293Z,79.03
2019-04-28T01:04:21.967Z,79.03
2019-04-28T01:07:05.296Z,100.00
2019-04-28T01:14:28.943Z,79.03
2019-04-28T01:19:39.830Z,100.00
2019-04-28T01:22:46.848Z,100.00
2019-04-28T01:27:17.334Z,100.00
2019-04-28T01:33:10.923Z,100.00
2019-04-28T01:35:43.253Z,79.03
2019-04-28T01:38:47.946Z,100.00
2019-04-28T01:45:20.582Z,79.03
2019-04-28T01:49:09.547Z,100.00
2019-04-28T01:51:47.203Z,79.03
2019-04-28T01:55:25.407Z,79.03
2019-04-28T01:58:01.057Z,100.00
2019-04-28T02:00:59.589Z,100.00
2019-04-28T02:03:52.378Z,79.03
2019-04-28T02:06:40.599Z,79.03
2019-04-28T02:12:03.469Z,79.03
2019-04-28T02:15:33.208Z,100.00
2019-04-28T02:22:10.579Z,79.03
2019-04-28T02:25:07.152Z,79.03
2019-04-28T02:29:07.035Z,100.00
2019-04-28T02:32:31.162Z,100.00
2019-04-28T02:35:13.198Z,79.03
2019-04-28T02:37:51.455Z,79.03
2019-04-28T02:40:27.284Z,100.00
2019-04-28T02:43:20.869Z,100.00
2019-04-28T02:45:57.638Z,100.00
2019-04-28T02:48:41.620Z,100.00
2019-04-28T02:51:40.762Z,100.00
2019-04-28T02:55:13.910Z,100.00
2019-04-28T03:06:40.518Z,100.00
2019-04-28T03:10:41.603Z,100.00
2019-04-28T03:14:21.954Z,100.00
2019-04-28T03:21:41.716Z,79.03
2019-04-28T03:53:36.734Z,100.00
2019-04-28T03:59:25.830Z,100.00
2019-04-28T04:03:51.564Z,100.00
2019-04-28T04:09:11.074Z,100.00
2019-04-28T04:12:14.746Z,100.00
2019-04-28T04:15:41.166Z,100.00
2019-04-28T04:19:20.165Z,100.00
2019-04-28T04:22:14.457Z,100.00
2019-04-28T04:24:54.761Z,100.00
2019-04-28T04:27:53.184Z,100.00
2019-04-28T04:30:25.699Z,79.03
2019-04-28T05:14:07.586Z,79.03
2019-04-28T05:21:54.530Z,100.00
2019-04-28T05:24:46.175Z,79.03
2019-04-28T05:42:14.544Z,100.00
2019-04-28T05:47:54.332Z,100.00
2019-04-28T05:50:40.298Z,100.00
2019-04-28T05:55:01.787Z,100.00
2019-04-28T05:57:59.997Z,100.00
2019-04-28T06:04:09.601Z,79.03
2019-04-28T06:07:01.563Z,100.00
2019-04-28T06:09:44.678Z,100.00
2019-04-28T06:25:23.442Z,79.03
2019-04-28T06:29:37.805Z,79.03
2019-04-28T06:32:12.715Z,79.03
2019-04-28T06:34:52.511Z,79.03
2019-04-28T06:38:01.649Z,79.03
2019-04-28T06:40:49.786Z,79.03
2019-04-28T06:43:20.564Z,79.03
2019-04-28T06:46:10.086Z,65.64
2019-04-28T06:49:09.565Z,65.64
2019-04-28T06:52:25.020Z,65.64
2019-04-28T06:59:40.312Z,65.64
2019-04-28T07:07:28.364Z,65.64
2019-04-28T07:10:07.525Z,65.64
2019-04-28T07:12:39.836Z,65.64
2019-04-28T07:15:41.294Z,65.64
2019-04-28T07:18:19.165Z,65.64
2019-04-28T07:20:53.446Z,65.64
2019-04-28T07:33:49.059Z,65.64
2019-04-28T07:36:46.187Z,65.64
2019-04-28T07:39:35.539Z,65.64
2019-04-28T07:42:54.254Z,65.64
2019-04-28T07:45:25.041Z,65.64
2019-04-28T07:48:11.057Z,62.42
2019-04-28T07:50:44.447Z,62.42
2019-04-28T07:56:42.049Z,62.42
2019-04-28T07:59:21.675Z,62.42
2019-04-28T08:01:52.584Z,62.42
2019-04-28T08:04:23.359Z,59.58
2019-04-28T08:06:54.142Z,57.94
2019-04-28T08:09:24.923Z,58.78
2019-04-28T08:11:55.685Z,58.87
2019-04-28T08:14:26.483Z,58.77
2019-04-28T08:16:57.261Z,58.56
2019-04-28T08:19:28.068Z,60.61
2019-04-28T08:21:58.849Z,58.51
2019-04-28T08:24:29.613Z,58.83
2019-04-28T08:27:00.402Z,58.75
2019-04-28T08:29:31.227Z,58.95
2019-04-28T08:32:06.945Z,58.00
2019-04-28T08:34:37.725Z,58.11
2019-04-28T08:37:08.498Z,58.24
2019-04-28T08:39:39.290Z,58.47
2019-04-28T08:42:10.050Z,56.88
2019-04-28T08:44:40.835Z,58.10
2019-04-28T08:47:11.612Z,57.82
2019-04-28T08:49:42.407Z,58.04
2019-04-28T08:52:13.190Z,57.58
2019-04-28T08:54:43.975Z,58.67
2019-04-28T08:57:14.747Z,57.06
2019-04-28T08:59:45.535Z,57.63
2019-04-28T09:02:16.315Z,57.99
2019-04-28T09:04:47.104Z,54.81
2019-04-28T09:07:17.891Z,56.21
2019-04-28T09:09:48.654Z,52.31
2019-04-28T09:12:19.430Z,52.43
2019-04-28T09:14:50.200Z,51.57
2019-04-28T09:17:20.981Z,51.41
2019-04-28T09:19:51.756Z,48.95
2019-04-28T09:22:22.555Z,48.77
2019-04-28T09:24:53.359Z,49.27
2019-04-28T09:27:24.137Z,47.34
2019-04-28T09:29:54.907Z,52.07
2019-04-28T09:32:25.676Z,50.42
2019-04-28T09:34:56.439Z,51.54
2019-04-28T09:37:27.454Z,51.67
2019-04-28T09:40:12.018Z,52.55
2019-04-28T09:42:53.958Z,50.56
2019-04-28T09:45:26.661Z,51.38
2019-04-28T09:47:57.425Z,47.74
2019-04-28T09:50:28.225Z,48.39
2019-04-28T09:52:59.008Z,49.08
2019-04-28T09:55:29.783Z,46.65
2019-04-28T09:58:00.546Z,45.82
2019-04-28T10:00:31.439Z,46.26
2019-04-28T10:03:02.208Z,47.11
2019-04-28T10:05:33.038Z,47.67
2019-04-28T10:08:03.914Z,49.87
2019-04-28T10:10:34.682Z,48.50
2019-04-28T10:13:05.466Z,48.13
2019-04-28T10:15:36.225Z,47.76
2019-04-28T10:18:07.010Z,46.52
2019-04-28T10:20:37.758Z,48.02
2019-04-28T10:23:08.549Z,47.12
2019-04-28T10:25:41.230Z,47.97
2019-04-28T10:28:12.016Z,49.30
2019-04-28T10:30:42.779Z,48.82
2019-04-28T10:33:14.079Z,47.72
2019-04-28T10:35:44.945Z,46.58
2019-04-28T10:38:15.748Z,44.08
2019-04-28T10:40:51.180Z,45.46
2019-04-28T10:43:21.959Z,43.62
2019-04-28T10:45:53.142Z,42.96
2019-04-28T10:48:23.907Z,43.59
2019-04-28T10:50:54.667Z,43.92
2019-04-28T10:53:25.611Z,41.40
2019-04-28T10:55:56.369Z,41.56
2019-04-28T10:58:27.247Z,41.30
2019-04-28T11:00:58.013Z,41.15
2019-04-28T11:03:28.797Z,42.27
2019-04-28T11:05:59.590Z,42.14
2019-04-28T11:08:38.432Z,40.13
2019-04-28T11:11:11.097Z,40.45
2019-04-28T11:13:42.047Z,35.45
2019-04-28T11:16:14.714Z,35.76
2019-04-28T11:18:45.694Z,39.56
2019-04-28T11:21:16.463Z,39.31
2019-04-28T11:23:47.273Z,39.96
2019-04-28T11:26:18.054Z,39.53
2019-04-28T11:28:50.473Z,41.91
2019-04-28T11:31:21.241Z,43.16
2019-04-28T11:33:56.426Z,40.04
2019-04-28T11:36:27.183Z,42.24
2019-04-28T11:38:58.031Z,45.07
2019-04-28T11:41:28.799Z,47.94
2019-04-28T11:43:59.570Z,46.34
2019-04-28T11:46:30.353Z,46.47
2019-04-28T11:49:01.132Z,47.49
2019-04-28T11:51:31.926Z,44.76
2019-04-28T11:54:03.208Z,42.85
2019-04-28T11:56:41.306Z,42.78
2019-04-28T11:59:06.684Z,41.84
2019-04-28T12:01:37.612Z,39.98
2019-04-28T12:04:10.296Z,41.28
2019-04-28T12:06:41.081Z,43.35
2019-04-28T12:09:31.940Z,43.58
2019-04-28T12:12:21.342Z,44.96
2019-04-28T12:14:54.130Z,43.80
2019-04-28T12:17:29.585Z,44.09
2019-04-28T12:20:02.276Z,42.58
2019-04-28T12:22:33.097Z,44.80
2019-04-28T12:25:06.748Z,45.50
2019-04-28T12:27:37.521Z,44.70
2019-04-28T12:30:08.613Z,45.56
2019-04-28T12:32:39.400Z,44.76
2019-04-28T12:35:10.569Z,46.07
2019-04-28T12:37:41.612Z,45.24
2019-04-28T12:40:12.481Z,45.50
2019-04-28T12:42:43.278Z,45.97
2019-04-28T12:45:14.377Z,45.62
2019-04-28T12:47:45.424Z,47.17
2019-04-28T12:50:18.403Z,45.53
2019-04-28T12:52:49.455Z,45.65
2019-04-28T12:55:20.355Z,44.97
2019-04-28T12:57:51.115Z,45.84
2019-04-28T13:00:29.753Z,46.03
2019-04-28T13:03:19.095Z,47.66
2019-04-28T13:06:01.491Z,46.70
2019-04-28T13:08:24.477Z,46.54
2019-04-28T13:10:55.246Z,48.59
2019-04-28T13:13:26.019Z,46.90
2019-04-28T13:15:56.793Z,47.41
2019-04-28T13:18:27.591Z,48.54
2019-04-28T13:20:59.116Z,44.35
2019-04-28T13:23:30.048Z,42.70
2019-04-28T13:26:00.882Z,41.62
2019-04-28T13:28:31.599Z,34.29
2019-04-28T13:31:02.477Z,34.29
2019-04-28T13:33:33.265Z,33.90
2019-04-28T13:36:14.166Z,35.94
2019-04-28T13:38:36.746Z,38.18
2019-04-28T13:41:07.517Z,38.18
2019-04-28T13:43:38.331Z,37.87
2019-04-28T13:46:10.989Z,34.00
2019-04-28T13:48:41.755Z,31.93
2019-04-28T13:51:12.556Z,32.24
2019-04-28T13:53:43.347Z,31.22
2019-04-28T13:56:14.152Z,33.25
2019-04-28T13:58:45.182Z,33.41
2019-04-28T14:01:34.501Z,34.61
2019-04-28T14:04:09.998Z,39.21
2019-04-28T14:06:42.652Z,37.25
2019-04-28T14:09:15.334Z,37.25
2019-04-28T14:11:46.127Z,36.08
2019-04-28T14:14:17.215Z,31.90
2019-04-28T14:16:48.025Z,31.43
2019-04-28T14:19:18.829Z,32.14
2019-04-28T14:21:49.573Z,31.05
2019-04-28T14:24:20.342Z,31.66
2019-04-28T14:26:51.130Z,29.80
2019-04-28T14:29:21.913Z,29.26
2019-04-28T14:31:52.685Z,29.48
2019-04-28T14:34:23.554Z,32.56
2019-04-28T14:36:54.380Z,33.31
2019-04-28T14:39:25.108Z,34.83
2019-04-28T14:41:55.889Z,39.03
2019-04-28T14:44:26.658Z,36.56
2019-04-28T14:46:57.437Z,38.94
2019-04-28T14:49:28.201Z,40.18
2019-04-28T14:51:58.992Z,39.40
2019-04-28T14:54:30.136Z,39.28
2019-04-28T14:57:00.920Z,38.91
2019-04-28T14:59:31.703Z,38.92
2019-04-28T15:02:13.655Z,39.88
2019-04-28T15:04:58.590Z,39.26
2019-04-28T15:07:48.387Z,41.16
2019-04-28T15:10:21.072Z,40.03
2019-04-28T15:12:51.955Z,39.15
2019-04-28T15:15:22.752Z,39.80
2019-04-28T15:17:53.510Z,40.49
2019-04-28T15:20:24.290Z,38.71
2019-04-28T15:22:55.058Z,39.85
2019-04-28T15:25:25.830Z,38.72
2019-04-28T15:27:56.608Z,36.87
2019-04-28T15:30:27.419Z,38.51
2019-04-28T15:32:58.214Z,40.18
2019-04-28T15:35:28.968Z,39.76
2019-04-28T15:37:59.842Z,41.46
2019-04-28T15:40:30.603Z,39.30
2019-04-28T15:43:01.455Z,42.01
2019-04-28T15:45:32.221Z,41.66
2019-04-28T15:48:03.104Z,42.24
2019-04-28T15:50:33.863Z,43.88
2019-04-28T15:53:04.635Z,44.10
2019-04-28T15:55:37.303Z,43.99
2019-04-28T15:58:26.871Z,45.06
2019-04-28T16:00:57.832Z,45.64
2019-04-28T16:03:28.618Z,43.96
2019-04-28T16:06:00.029Z,44.18
2019-04-28T16:08:30.988Z,44.15
2019-04-28T16:11:01.869Z,47.78
2019-04-28T16:13:32.642Z,44.97
2019-04-28T16:16:03.712Z,44.10
2019-04-28T16:18:34.505Z,44.71
2019-04-28T16:21:05.366Z,45.31
2019-04-28T16:23:36.148Z,42.23
2019-04-28T16:26:06.914Z,43.03
2019-04-28T16:28:37.685Z,44.47
2019-04-28T16:31:08.446Z,43.73
2019-04-28T16:33:39.232Z,43.53
2019-04-28T16:36:09.996Z,45.29
2019-04-28T16:38:40.778Z,44.78
2019-04-28T16:41:11.656Z,43.84
2019-04-28T16:43:42.435Z,44.48
2019-04-28T16:46:13.213Z,45.22
2019-04-28T16:48:43.998Z,45.73
2019-04-28T16:51:14.808Z,44.40
2019-04-28T16:53:45.556Z,44.57
2019-04-28T16:56:26.787Z,47.75
2019-04-28T16:59:11.497Z,45.87
2019-04-28T17:01:56.371Z,44.55
2019-04-28T17:04:27.137Z,46.81
2019-04-28T17:06:57.938Z,46.76
2019-04-28T17:09:28.844Z,47.68
2019-04-28T17:11:59.653Z,47.23
2019-04-28T17:14:30.435Z,49.73
2019-04-28T17:17:01.233Z,47.79
2019-04-28T17:19:32.030Z,49.89
2019-04-28T17:22:02.942Z,50.35
2019-04-28T17:24:33.969Z,46.99
2019-04-28T17:27:04.791Z,48.98
2019-04-28T17:29:37.903Z,46.62
2019-04-28T17:32:08.348Z,46.92
2019-04-28T17:34:39.460Z,47.72
2019-04-28T17:37:10.652Z,48.91
2019-04-28T17:39:41.491Z,47.95
2019-04-28T17:42:12.380Z,49.78
2019-04-28T17:44:43.235Z,50.28
2019-04-28T17:47:15.816Z,48.98
2019-04-28T17:49:46.664Z,49.16
2019-04-28T17:52:17.413Z,49.60
2019-04-28T17:54:48.229Z,50.07
2019-04-28T17:57:18.997Z,47.40
2019-04-28T17:59:51.688Z,48.62
2019-04-28T18:02:27.359Z,51.55
2019-04-28T18:05:00.152Z,52.58
2019-04-28T18:07:32.890Z,53.84
2019-04-28T18:10:05.900Z,53.29
2019-04-28T18:12:36.709Z,54.20
2019-04-28T18:15:15.180Z,53.49
2019-04-28T18:18:00.211Z,54.28
2019-04-28T18:20:30.988Z,54.44
2019-04-28T18:23:01.865Z,55.13
2019-04-28T18:25:32.669Z,54.68
2019-04-28T18:28:03.446Z,56.17
2019-04-28T18:30:36.138Z,57.25
2019-04-28T18:33:08.912Z,56.13
2019-04-28T18:35:44.399Z,55.56
2019-04-28T18:38:34.326Z,55.37
2019-04-28T18:40:57.824Z,55.42
2019-04-28T18:43:47.431Z,55.98
2019-04-28T18:46:22.955Z,55.28
2019-04-28T18:48:53.773Z,56.61
2019-04-28T18:51:24.578Z,57.43
2019-04-28T18:53:55.527Z,57.38
2019-04-28T18:56:26.413Z,58.15
2019-04-28T18:58:57.246Z,57.10
2019-04-28T19:01:32.757Z,57.72
2019-04-28T19:04:03.791Z,57.10
2019-04-28T19:06:34.603Z,57.40
2019-04-28T19:09:25.754Z,59.60
2019-04-28T19:12:01.223Z,59.83
2019-04-28T19:14:40.228Z,57.54
2019-04-28T19:17:19.518Z,59.27
2019-04-28T19:19:50.256Z,59.77
2019-04-28T19:22:21.024Z,60.36
2019-04-28T19:24:51.795Z,57.67
2019-04-28T19:27:22.574Z,55.93
2019-04-28T19:29:53.377Z,55.66
2019-04-28T19:32:24.144Z,57.96
2019-04-28T19:34:54.981Z,58.38
2019-04-28T19:37:25.720Z,57.50
2019-04-28T19:39:56.917Z,56.21
2019-04-28T19:42:30.810Z,57.66
2019-04-28T19:45:02.724Z,59.50
2019-04-28T19:47:33.524Z,60.74
2019-04-28T19:50:06.202Z,60.85
2019-04-28T19:52:39.780Z,61.01
2019-04-28T19:55:26.666Z,61.43
2019-04-28T19:57:59.338Z,61.04
2019-04-28T20:00:32.050Z,60.55
2019-04-28T20:03:02.945Z,60.98
2019-04-28T20:05:33.769Z,60.21
2019-04-28T20:08:05.053Z,60.76
2019-04-28T20:10:35.850Z,61.18
2019-04-28T20:13:07.201Z,61.84
2019-04-28T20:15:41.220Z,61.75
2019-04-28T20:18:14.012Z,61.34
2019-04-28T20:20:44.788Z,63.11
2019-04-28T20:23:15.862Z,63.27
2019-04-28T20:25:46.611Z,63.92
2019-04-28T20:28:17.399Z,63.64
2019-04-28T20:30:48.166Z,63.86
2019-04-28T20:33:18.927Z,64.53
2019-04-28T20:35:51.633Z,64.53
2019-04-28T20:38:24.402Z,64.67
2019-04-28T20:41:05.811Z,64.91
2019-04-28T20:43:36.897Z,65.13
2019-04-28T20:46:08.041Z,66.32
2019-04-28T20:48:38.810Z,66.25
2019-04-28T20:51:09.584Z,66.32
2019-04-28T20:53:40.353Z,66.22
2019-04-28T20:56:11.175Z,65.83
2019-04-28T20:58:45.787Z,66.59
2019-04-28T21:01:16.635Z,66.69
2019-04-28T21:03:47.348Z,67.65
2019-04-28T21:06:18.248Z,66.17
2019-04-28T21:08:49.019Z,63.18
2019-04-28T21:11:19.796Z,65.40
2019-04-28T21:13:53.773Z,66.33
2019-04-28T21:16:24.569Z,65.58
2019-04-28T21:18:55.689Z,66.65
2019-04-28T21:21:26.463Z,66.49
2019-04-28T21:23:57.223Z,65.08
2019-04-28T21:26:27.999Z,64.63
2019-04-28T21:28:58.768Z,65.91
2019-04-28T21:31:32.637Z,67.16
2019-04-28T21:34:02.222Z,67.65
2019-04-28T21:36:32.994Z,68.47
2019-04-28T21:39:05.869Z,67.15
2019-04-28T21:41:36.649Z,65.73
2019-04-28T21:44:09.343Z,67.26
2019-04-28T21:47:00.453Z,69.09
2019-04-28T21:49:35.433Z,68.86
2019-04-28T21:52:08.459Z,69.12
2019-04-28T21:54:39.805Z,68.11
2019-04-28T21:57:10.584Z,66.81
2019-04-28T21:59:41.613Z,65.79
2019-04-28T22:02:12.376Z,66.36
2019-04-28T22:04:43.148Z,67.23
2019-04-28T22:07:14.448Z,67.10
2019-04-28T22:09:45.207Z,66.37
2019-04-28T22:12:15.998Z,65.95
2019-04-28T22:14:46.860Z,66.43
2019-04-28T22:17:19.722Z,67.90
2019-04-28T22:19:50.462Z,69.35
2019-04-28T22:22:21.238Z,70.05
2019-04-28T22:24:54.223Z,68.37
2019-04-28T22:27:26.904Z,68.67
2019-04-28T22:29:57.677Z,68.93
2019-04-28T22:32:28.740Z,69.11
2019-04-28T22:35:00.227Z,69.01
2019-04-28T22:37:31.039Z,68.81
2019-04-28T22:40:07.487Z,68.65
2019-04-28T22:42:41.152Z,68.41
2019-04-28T22:45:14.765Z,68.78
2019-04-28T22:47:46.245Z,67.50
2019-04-28T22:50:36.321Z,67.38
2019-04-28T22:53:07.377Z,68.96
2019-04-28T22:55:40.072Z,70.14
2019-04-28T22:58:17.549Z,69.79
2019-04-28T23:00:52.432Z,70.03
2019-04-28T23:03:25.606Z,70.07
2019-04-28T23:05:58.683Z,70.42
2019-04-28T23:08:29.489Z,70.97
2019-04-28T23:11:00.338Z,70.17
2019-04-28T23:13:31.139Z,68.83
2019-04-28T23:16:01.900Z,67.77
2019-04-28T23:18:32.907Z,67.74
2019-04-28T23:21:05.663Z,68.88
2019-04-28T23:23:36.961Z,68.73
2019-04-28T23:26:07.723Z,68.90
2019-04-28T23:28:38.495Z,69.91
2019-04-28T23:31:09.258Z,70.27
2019-04-28T23:33:40.417Z,68.98
2019-04-28T23:36:11.206Z,68.15
2019-04-28T23:38:42.535Z,69.62
2019-04-28T23:41:33.210Z,69.87
2019-04-28T23:44:06.612Z,69.68
2019-04-28T23:46:57.038Z,69.77
2019-04-28T23:49:29.221Z,69.97
2019-04-28T23:52:01.913Z,70.70
2019-04-28T23:54:34.591Z,70.13
2019-04-28T23:57:07.285Z,70.71
2019-04-28T23:59:38.053Z,69.93
